createdAt,value
2023-05-14T00:00:26.133Z,15.72
2023-05-14T00:02:53.948Z,15.45
2023-05-14T00:05:22.110Z,15.46
2023-05-14T00:07:49.850Z,14.91
2023-05-14T00:10:19.141Z,14.73
2023-05-14T00:12:48.351Z,15.15
2023-05-14T00:15:16.070Z,15.21
2023-05-14T00:17:43.827Z,15.25
2023-05-14T00:20:14.888Z,15.26
2023-05-14T00:22:44.597Z,14.94
2023-05-14T00:25:12.332Z,15.16
2023-05-14T00:27:40.073Z,15.08
2023-05-14T00:30:09.892Z,15.15
2023-05-14T00:32:37.617Z,14.55
2023-05-14T00:35:06.037Z,14.30
2023-05-14T00:37:33.794Z,14.92
2023-05-14T00:40:06.660Z,14.97
2023-05-14T00:42:34.967Z,14.87
2023-05-14T00:45:02.712Z,14.70
2023-05-14T00:47:33.406Z,14.77
2023-05-14T00:50:01.440Z,15.08
2023-05-14T00:52:29.216Z,15.11
2023-05-14T00:54:57.870Z,15.26
2023-05-14T00:57:27.556Z,13.97
2023-05-14T00:59:55.411Z,14.24
2023-05-14T01:02:23.283Z,14.24
2023-05-14T01:04:53.240Z,13.75
2023-05-14T01:07:31.250Z,13.58
2023-05-14T01:10:07.891Z,13.94
2023-05-14T01:12:41.167Z,14.44
2023-05-14T01:15:12.544Z,14.37
2023-05-14T01:17:43.998Z,14.37
2023-05-14T01:20:13.634Z,14.01
2023-05-14T01:22:42.801Z,13.71
2023-05-14T01:25:11.386Z,14.11
2023-05-14T01:27:48.725Z,14.09
2023-05-14T01:30:22.996Z,14.02
2023-05-14T01:32:52.692Z,14.56
2023-05-14T01:35:23.552Z,14.10
2023-05-14T01:37:55.774Z,13.27
2023-05-14T01:40:24.740Z,13.86
2023-05-14T01:42:54.664Z,14.00
2023-05-14T01:45:22.424Z,14.22
2023-05-14T01:47:50.576Z,14.44
2023-05-14T01:50:20.368Z,14.30
2023-05-14T01:52:49.022Z,14.43
2023-05-14T01:55:18.356Z,13.79
2023-05-14T01:57:46.063Z,13.90
2023-05-14T02:00:14.886Z,13.65
2023-05-14T02:02:42.680Z,13.95
2023-05-14T02:05:13.724Z,13.19
2023-05-14T02:07:43.256Z,13.30
2023-05-14T02:10:11.454Z,13.85
2023-05-14T02:12:40.714Z,13.45
2023-05-14T02:15:10.910Z,13.18
2023-05-14T02:17:39.099Z,12.93
2023-05-14T02:20:09.543Z,12.76
2023-05-14T02:22:37.814Z,12.60
2023-05-14T02:25:06.152Z,12.48
2023-05-14T02:27:34.663Z,12.25
2023-05-14T02:30:04.644Z,12.33
2023-05-14T02:32:32.474Z,12.42
2023-05-14T02:35:00.454Z,12.56
2023-05-14T02:37:28.135Z,12.99
2023-05-14T02:39:55.942Z,13.38
2023-05-14T02:42:23.790Z,13.21
2023-05-14T02:44:52.832Z,13.61
2023-05-14T02:47:22.137Z,13.68
2023-05-14T02:49:52.677Z,13.56
2023-05-14T02:52:21.211Z,13.31
2023-05-14T02:54:48.940Z,13.34
2023-05-14T02:57:16.698Z,12.64
2023-05-14T02:59:44.471Z,13.10
2023-05-14T03:02:12.699Z,13.15
2023-05-14T03:04:42.293Z,13.36
2023-05-14T03:07:10.083Z,12.89
2023-05-14T03:09:38.424Z,12.79
2023-05-14T03:12:06.942Z,12.45
2023-05-14T03:14:34.859Z,12.49
2023-05-14T03:17:03.946Z,12.57
2023-05-14T03:19:31.814Z,12.74
2023-05-14T03:22:01.033Z,13.06
2023-05-14T03:24:28.748Z,13.18
2023-05-14T03:26:56.484Z,13.04
2023-05-14T03:29:24.347Z,13.48
2023-05-14T03:31:52.165Z,13.20
2023-05-14T03:34:20.127Z,13.49
2023-05-14T03:36:47.860Z,13.71
2023-05-14T03:39:19.685Z,13.68
2023-05-14T03:41:47.760Z,13.83
2023-05-14T03:44:15.852Z,13.66
2023-05-14T03:46:43.554Z,13.91
2023-05-14T03:49:12.983Z,14.09
2023-05-14T03:51:40.933Z,13.95
2023-05-14T03:54:08.812Z,14.16
2023-05-14T03:56:37.901Z,14.15
2023-05-14T03:59:05.747Z,14.26
2023-05-14T04:01:33.552Z,14.42
2023-05-14T04:04:03.165Z,14.37
2023-05-14T04:06:32.299Z,14.19
2023-05-14T04:09:00.131Z,14.48
2023-05-14T04:11:28.080Z,14.39
2023-05-14T04:13:57.225Z,14.32
2023-05-14T04:16:25.019Z,14.44
2023-05-14T04:18:52.836Z,14.24
2023-05-14T04:21:21.936Z,14.30
2023-05-14T04:23:50.825Z,14.46
2023-05-14T04:26:18.663Z,14.42
2023-05-14T04:28:46.394Z,14.34
2023-05-14T04:31:16.462Z,14.53
2023-05-14T04:33:44.346Z,14.56
2023-05-14T04:36:12.444Z,14.83
2023-05-14T04:38:41.037Z,14.19
2023-05-14T04:41:08.903Z,14.45
2023-05-14T04:43:39.125Z,14.08
2023-05-14T04:46:07.734Z,14.33
2023-05-14T04:48:37.138Z,14.32
2023-05-14T04:51:07.128Z,14.11
2023-05-14T04:53:35.061Z,13.81
2023-05-14T04:56:02.756Z,13.74
2023-05-14T04:58:34.531Z,13.85
2023-05-14T05:01:03.934Z,13.90
2023-05-14T05:03:32.214Z,14.21
2023-05-14T05:06:01.436Z,14.42
2023-05-14T05:08:29.308Z,14.37
2023-05-14T05:10:57.009Z,13.90
2023-05-14T05:13:24.829Z,14.43
2023-05-14T05:15:52.595Z,14.37
2023-05-14T05:18:20.462Z,14.34
2023-05-14T05:20:48.297Z,14.58
2023-05-14T05:23:17.454Z,14.72
2023-05-14T05:25:45.150Z,14.18
2023-05-14T05:28:12.905Z,14.13
2023-05-14T05:30:40.949Z,14.24
2023-05-14T05:33:08.793Z,14.65
2023-05-14T05:35:36.572Z,14.95
2023-05-14T05:38:04.440Z,14.83
2023-05-14T05:40:33.655Z,15.00
2023-05-14T05:43:01.424Z,15.00
2023-05-14T05:45:29.152Z,15.18
2023-05-14T05:47:56.899Z,14.88
2023-05-14T05:50:25.572Z,15.21
2023-05-14T05:52:53.599Z,15.30
2023-05-14T05:55:21.480Z,15.58
2023-05-14T05:57:50.810Z,16.03
2023-05-14T06:00:19.246Z,15.74
2023-05-14T06:02:47.522Z,15.85
2023-05-14T06:05:18.978Z,15.37
2023-05-14T06:07:46.808Z,15.25
2023-05-14T06:10:14.632Z,15.22
2023-05-14T06:12:42.432Z,15.59
2023-05-14T06:15:12.743Z,15.60
2023-05-14T06:17:40.621Z,15.78
2023-05-14T06:20:09.949Z,15.20
2023-05-14T06:22:37.917Z,15.11
2023-05-14T06:25:06.203Z,15.24
2023-05-14T06:27:34.017Z,15.55
2023-05-14T06:30:01.759Z,15.89
2023-05-14T06:32:30.836Z,15.67
2023-05-14T06:34:58.645Z,15.50
2023-05-14T06:37:26.426Z,15.52
2023-05-14T06:39:54.740Z,15.70
2023-05-14T06:42:24.134Z,15.45
2023-05-14T06:44:51.925Z,15.47
2023-05-14T06:47:19.672Z,15.75
2023-05-14T06:49:49.065Z,15.97
2023-05-14T06:52:18.458Z,15.88
2023-05-14T06:54:46.237Z,15.87
2023-05-14T06:57:13.952Z,16.46
2023-05-14T06:59:41.736Z,15.73
2023-05-14T07:02:09.412Z,16.60
2023-05-14T07:04:37.402Z,16.47
2023-05-14T07:07:06.779Z,17.08
2023-05-14T07:09:34.540Z,16.70
2023-05-14T07:12:02.292Z,17.03
2023-05-14T07:14:33.081Z,17.51
2023-05-14T07:17:01.319Z,17.43
2023-05-14T07:19:30.169Z,17.68
2023-05-14T07:21:58.504Z,17.75
2023-05-14T07:24:27.611Z,18.09
2023-05-14T07:26:57.234Z,16.70
2023-05-14T07:29:25.717Z,17.36
2023-05-14T07:31:53.532Z,18.01
2023-05-14T07:34:22.992Z,18.46
2023-05-14T07:36:50.805Z,17.80
2023-05-14T07:39:18.668Z,18.70
2023-05-14T07:41:47.931Z,19.37
2023-05-14T07:44:15.787Z,19.48
2023-05-14T07:46:43.678Z,19.29
2023-05-14T07:49:11.380Z,19.47
2023-05-14T07:51:39.225Z,19.03
2023-05-14T07:54:06.977Z,19.14
2023-05-14T07:56:34.777Z,19.79
2023-05-14T07:59:04.102Z,18.44
2023-05-14T08:01:32.291Z,18.74
2023-05-14T08:04:00.146Z,19.79
2023-05-14T08:06:28.260Z,19.42
2023-05-14T08:08:55.989Z,18.63
2023-05-14T08:11:23.780Z,20.64
2023-05-14T08:13:51.538Z,20.60
2023-05-14T08:16:20.641Z,19.82
2023-05-14T08:18:49.442Z,19.69
2023-05-14T08:21:17.628Z,19.79
2023-05-14T08:23:48.321Z,20.42
2023-05-14T08:26:16.055Z,21.13
2023-05-14T08:28:44.051Z,20.71
2023-05-14T08:31:11.859Z,19.93
2023-05-14T08:33:41.216Z,21.35
2023-05-14T08:36:09.553Z,22.52
2023-05-14T08:38:37.342Z,21.56
2023-05-14T08:41:07.050Z,21.86
2023-05-14T08:43:45.826Z,23.36
2023-05-14T08:46:16.116Z,23.33
2023-05-14T08:48:49.325Z,22.66
2023-05-14T08:51:17.344Z,23.68
2023-05-14T08:53:45.784Z,23.44
2023-05-14T08:56:14.295Z,23.45
2023-05-14T08:58:42.106Z,22.77
2023-05-14T09:01:09.824Z,21.62
2023-05-14T09:03:38.522Z,21.67
2023-05-14T09:06:09.051Z,21.63
2023-05-14T09:08:38.716Z,21.28
2023-05-14T09:11:06.754Z,22.90
2023-05-14T09:13:34.675Z,23.54
2023-05-14T09:16:06.785Z,23.38
2023-05-14T09:18:37.184Z,22.70
2023-05-14T09:21:07.160Z,22.37
2023-05-14T09:23:35.735Z,22.32
2023-05-14T09:26:07.724Z,22.91
2023-05-14T09:28:35.658Z,22.66
2023-05-14T09:31:05.090Z,21.56
2023-05-14T09:33:33.094Z,22.54
2023-05-14T09:36:01.114Z,21.90
2023-05-14T09:38:33.965Z,23.07
2023-05-14T09:41:01.964Z,22.97
2023-05-14T09:43:29.763Z,22.48
2023-05-14T09:45:57.750Z,23.16
2023-05-14T09:48:26.326Z,23.13
2023-05-14T09:50:54.289Z,23.01
2023-05-14T09:53:22.426Z,23.69
2023-05-14T09:55:51.608Z,23.32
2023-05-14T09:58:19.486Z,23.54
2023-05-14T10:00:48.274Z,23.38
2023-05-14T10:03:19.542Z,22.58
2023-05-14T10:05:50.198Z,21.48
2023-05-14T10:08:23.270Z,22.04
2023-05-14T10:10:54.363Z,21.92
2023-05-14T10:13:25.233Z,22.52
2023-05-14T10:15:58.601Z,22.57
2023-05-14T10:18:31.834Z,22.77
2023-05-14T10:21:05.587Z,20.40
2023-05-14T10:23:34.210Z,21.03
2023-05-14T10:26:06.531Z,21.92
2023-05-14T10:28:34.496Z,21.41
2023-05-14T10:31:02.220Z,21.82
2023-05-14T10:33:30.039Z,21.51
2023-05-14T10:36:03.928Z,21.76
2023-05-14T10:41:03.625Z,21.55
2023-05-14T10:43:32.164Z,22.59
2023-05-14T10:46:02.726Z,22.53
2023-05-14T10:48:30.772Z,23.03
2023-05-14T10:50:59.009Z,23.28
2023-05-14T10:53:35.397Z,23.99
2023-05-14T10:56:07.878Z,23.79
2023-05-14T10:58:39.401Z,22.28
2023-05-14T11:01:12.973Z,23.04
2023-05-14T11:03:42.773Z,22.10
2023-05-14T11:06:12.291Z,23.46
2023-05-14T11:08:41.521Z,24.09
2023-05-14T11:11:11.555Z,23.85
2023-05-14T11:13:39.627Z,22.88
2023-05-14T11:18:38.771Z,24.34
2023-05-14T11:21:07.049Z,24.18
2023-05-14T11:23:34.874Z,23.16
2023-05-14T11:26:02.974Z,23.86
2023-05-14T11:28:32.273Z,23.95
2023-05-14T11:31:02.483Z,23.85
2023-05-14T11:33:30.462Z,23.09
2023-05-14T11:35:58.326Z,23.96
2023-05-14T11:38:26.114Z,23.65
2023-05-14T11:40:57.213Z,22.40
2023-05-14T11:43:26.159Z,23.69
2023-05-14T11:45:55.615Z,23.80
2023-05-14T11:48:24.851Z,24.60
2023-05-14T11:50:54.121Z,25.36
2023-05-14T11:53:27.027Z,24.11
2023-05-14T11:55:57.579Z,23.66
2023-05-14T11:58:25.812Z,22.66
2023-05-14T12:00:57.034Z,22.52
2023-05-14T12:03:26.760Z,24.99
2023-05-14T12:06:02.965Z,25.82
2023-05-14T12:08:32.457Z,25.26
2023-05-14T12:11:01.390Z,24.99
2023-05-14T12:13:30.641Z,23.86
2023-05-14T12:16:02.031Z,24.20
2023-05-14T12:18:31.642Z,24.50
2023-05-14T12:21:04.341Z,24.67
2023-05-14T12:23:33.281Z,24.17
2023-05-14T12:26:02.808Z,26.07
2023-05-14T12:28:30.962Z,27.85
2023-05-14T12:31:00.418Z,26.96
2023-05-14T12:33:28.798Z,27.78
2023-05-14T12:36:07.390Z,28.54
2023-05-14T12:38:42.084Z,27.62
2023-05-14T12:41:09.802Z,29.66
2023-05-14T12:43:37.456Z,28.18
2023-05-14T12:46:06.675Z,26.42
2023-05-14T12:48:34.430Z,27.32
2023-05-14T12:51:02.164Z,28.91
2023-05-14T12:53:29.874Z,28.99
2023-05-14T12:55:57.593Z,28.60
2023-05-14T12:58:25.364Z,29.25
2023-05-14T13:00:53.341Z,28.93
2023-05-14T13:03:22.473Z,29.71
2023-05-14T13:05:51.675Z,29.97
2023-05-14T13:08:21.544Z,29.08
2023-05-14T13:10:49.290Z,27.88
2023-05-14T13:13:17.606Z,27.70
2023-05-14T13:15:46.680Z,28.44
2023-05-14T13:18:14.473Z,28.62
2023-05-14T13:20:43.540Z,28.45
2023-05-14T13:23:11.257Z,29.54
2023-05-14T13:25:39.139Z,28.53
2023-05-14T13:28:06.882Z,27.75
2023-05-14T13:30:34.609Z,27.23
2023-05-14T13:33:02.517Z,27.66
2023-05-14T13:35:30.371Z,27.83
2023-05-14T13:37:59.548Z,26.63
2023-05-14T13:40:27.315Z,25.11
2023-05-14T13:42:55.104Z,24.62
2023-05-14T13:45:23.154Z,24.58
2023-05-14T13:47:51.712Z,24.17
2023-05-14T13:50:19.661Z,24.37
2023-05-14T13:52:47.436Z,24.90
2023-05-14T13:55:17.249Z,25.35
2023-05-14T13:57:45.296Z,25.13
2023-05-14T14:00:15.015Z,26.12
2023-05-14T14:02:42.783Z,25.92
2023-05-14T14:05:10.898Z,24.96
2023-05-14T14:07:39.647Z,23.55
2023-05-14T14:10:08.963Z,24.89
2023-05-14T14:12:38.119Z,24.79
2023-05-14T14:15:07.429Z,25.19
2023-05-14T14:17:35.227Z,25.87
2023-05-14T14:20:05.914Z,25.46
2023-05-14T14:22:37.106Z,26.48
2023-05-14T14:25:05.228Z,25.56
2023-05-14T14:27:34.850Z,27.26
2023-05-14T14:30:03.950Z,25.57
2023-05-14T14:32:31.702Z,26.76
2023-05-14T14:34:59.496Z,27.95
2023-05-14T14:37:27.551Z,27.41
2023-05-14T14:39:55.183Z,24.69
2023-05-14T14:42:22.850Z,24.32
2023-05-14T14:44:50.846Z,24.29
2023-05-14T14:47:19.873Z,24.50
2023-05-14T14:49:47.616Z,24.22
2023-05-14T14:52:15.316Z,25.34
2023-05-14T14:54:43.153Z,25.72
2023-05-14T14:57:13.750Z,26.93
2023-05-14T14:59:41.510Z,27.08
2023-05-14T15:02:10.307Z,27.31
2023-05-14T15:04:39.526Z,26.95
2023-05-14T15:07:07.241Z,27.16
2023-05-14T15:09:35.036Z,27.09
2023-05-14T15:12:02.869Z,27.05
2023-05-14T15:14:30.621Z,25.77
2023-05-14T15:16:58.558Z,26.68
2023-05-14T15:19:28.001Z,26.78
2023-05-14T15:21:57.154Z,26.68
2023-05-14T15:24:26.149Z,26.80
2023-05-14T15:26:54.007Z,27.33
2023-05-14T15:29:22.390Z,26.88
2023-05-14T15:31:50.190Z,27.68
2023-05-14T15:34:17.991Z,27.07
2023-05-14T15:36:45.807Z,27.58
2023-05-14T15:39:15.213Z,26.36
2023-05-14T15:41:43.017Z,24.88
2023-05-14T15:44:10.805Z,25.01
2023-05-14T15:46:38.880Z,24.64
2023-05-14T15:49:06.698Z,23.28
2023-05-14T15:51:35.224Z,23.35
2023-05-14T15:54:03.138Z,23.36
2023-05-14T15:56:32.365Z,22.82
2023-05-14T15:59:00.181Z,22.79
2023-05-14T16:01:27.940Z,22.54
2023-05-14T16:03:56.027Z,22.25
2023-05-14T16:06:23.903Z,22.25
2023-05-14T16:08:52.161Z,22.05
2023-05-14T16:11:19.865Z,21.75
2023-05-14T16:13:49.517Z,22.08
2023-05-14T16:16:17.393Z,22.08
2023-05-14T16:18:45.239Z,21.38
2023-05-14T16:21:13.269Z,21.07
2023-05-14T16:23:41.288Z,20.93
2023-05-14T16:26:09.119Z,20.82
2023-05-14T16:28:36.893Z,21.65
2023-05-14T16:31:06.086Z,23.45
2023-05-14T16:33:33.774Z,24.05
2023-05-14T16:36:01.583Z,24.05
2023-05-14T16:38:29.337Z,23.46
2023-05-14T16:40:57.016Z,23.66
2023-05-14T16:43:24.918Z,23.76
2023-05-14T16:45:52.740Z,23.73
2023-05-14T16:48:23.781Z,23.63
2023-05-14T16:50:52.285Z,24.27
2023-05-14T16:53:20.066Z,24.01
2023-05-14T16:55:47.915Z,24.07
2023-05-14T16:58:15.683Z,22.88
2023-05-14T17:00:43.409Z,22.66
2023-05-14T17:03:11.169Z,22.53
2023-05-14T17:05:40.302Z,22.49
2023-05-14T17:08:08.036Z,22.21
2023-05-14T17:10:35.852Z,22.86
2023-05-14T17:13:05.788Z,23.89
2023-05-14T17:15:33.700Z,25.03
2023-05-14T17:18:01.713Z,24.72
2023-05-14T17:20:30.681Z,24.89
2023-05-14T17:22:59.769Z,24.26
2023-05-14T17:25:27.691Z,23.37
2023-05-14T17:27:55.437Z,22.95
2023-05-14T17:30:23.196Z,23.01
2023-05-14T17:32:51.289Z,22.71
2023-05-14T17:35:19.254Z,22.49
2023-05-14T17:37:47.050Z,21.67
2023-05-14T17:40:16.259Z,21.84
2023-05-14T17:42:45.443Z,21.97
2023-05-14T17:45:14.474Z,21.63
2023-05-14T17:47:42.266Z,21.69
2023-05-14T17:50:11.383Z,21.46
2023-05-14T17:52:40.857Z,21.72
2023-05-14T17:55:09.327Z,21.24
2023-05-14T17:57:38.670Z,21.29
2023-05-14T18:00:08.249Z,20.96
2023-05-14T18:02:39.043Z,21.10
2023-05-14T18:05:07.562Z,21.15
2023-05-14T18:07:36.877Z,20.97
2023-05-14T18:10:04.931Z,21.18
2023-05-14T18:12:32.802Z,20.90
2023-05-14T18:15:01.883Z,21.01
2023-05-14T18:17:29.746Z,20.17
2023-05-14T18:19:57.497Z,20.13
2023-05-14T18:22:25.226Z,19.88
2023-05-14T18:24:52.961Z,19.60
2023-05-14T18:27:20.744Z,19.76
2023-05-14T18:29:48.498Z,20.16
2023-05-14T18:32:17.543Z,20.33
2023-05-14T18:34:45.330Z,20.28
2023-05-14T18:37:13.687Z,20.38
2023-05-14T18:39:41.446Z,20.29
2023-05-14T18:42:09.891Z,20.24
2023-05-14T18:44:39.426Z,20.44
2023-05-14T18:47:07.819Z,20.60
2023-05-14T18:49:40.129Z,20.49
2023-05-14T18:52:08.174Z,19.80
2023-05-14T18:54:38.906Z,19.75
2023-05-14T18:57:07.163Z,19.42
2023-05-14T18:59:34.934Z,19.00
2023-05-14T19:02:02.800Z,18.85
2023-05-14T19:04:33.268Z,18.97
2023-05-14T19:07:02.939Z,18.83
2023-05-14T19:09:30.770Z,18.97
2023-05-14T19:11:58.664Z,18.57
2023-05-14T19:14:27.855Z,17.99
2023-05-14T19:16:55.718Z,18.35
2023-05-14T19:19:23.518Z,17.82
2023-05-14T19:21:51.261Z,18.36
2023-05-14T19:24:20.321Z,18.17
2023-05-14T19:26:50.777Z,18.07
2023-05-14T19:29:18.605Z,18.14
2023-05-14T19:31:47.086Z,17.41
2023-05-14T19:34:14.909Z,17.59
2023-05-14T19:36:43.205Z,17.65
2023-05-14T19:39:12.020Z,17.59
2023-05-14T19:41:41.199Z,17.21
2023-05-14T19:44:08.955Z,17.39
2023-05-14T19:46:37.706Z,17.19
2023-05-14T19:49:05.422Z,17.31
2023-05-14T19:51:33.183Z,17.34
2023-05-14T19:54:01.159Z,17.06
2023-05-14T19:56:31.611Z,17.28
2023-05-14T19:59:00.849Z,16.78
2023-05-14T20:01:28.956Z,16.61
2023-05-14T20:03:56.754Z,16.19
2023-05-14T20:06:24.566Z,15.62
2023-05-14T20:08:52.435Z,14.58
2023-05-14T20:11:20.187Z,14.17
2023-05-14T20:13:50.959Z,14.16
2023-05-14T20:16:20.258Z,14.65
2023-05-14T20:18:48.031Z,14.78
2023-05-14T20:21:16.212Z,15.38
2023-05-14T20:23:44.050Z,15.83
2023-05-14T20:26:11.820Z,16.18
2023-05-14T20:28:39.611Z,16.42
2023-05-14T20:31:07.964Z,16.58
2023-05-14T20:33:37.275Z,16.09
2023-05-14T20:36:05.276Z,15.72
2023-05-14T20:38:34.887Z,15.73
2023-05-14T20:41:02.892Z,15.68
2023-05-14T20:43:30.788Z,15.74
2023-05-14T20:45:59.321Z,15.77
2023-05-14T20:48:27.124Z,15.20
2023-05-14T20:50:56.242Z,14.59
2023-05-14T20:53:25.365Z,14.83
2023-05-14T20:55:53.238Z,14.49
2023-05-14T20:58:21.245Z,14.56
2023-05-14T21:00:48.992Z,14.62
2023-05-14T21:03:17.173Z,15.51
2023-05-14T21:05:45.222Z,15.48
2023-05-14T21:08:14.296Z,15.09
2023-05-14T21:10:42.057Z,14.61
2023-05-14T21:13:09.839Z,14.49
2023-05-14T21:15:37.817Z,13.98
2023-05-14T21:18:05.738Z,13.51
2023-05-14T21:20:33.640Z,13.31
2023-05-14T21:23:01.419Z,13.54
2023-05-14T21:25:31.158Z,13.72
2023-05-14T21:27:58.904Z,13.26
2023-05-14T21:30:26.653Z,13.66
2023-05-14T21:32:54.476Z,13.45
2023-05-14T21:35:22.475Z,13.26
2023-05-14T21:37:53.344Z,13.67
2023-05-14T21:40:21.165Z,13.12
2023-05-14T21:42:51.085Z,12.87
2023-05-14T21:45:19.399Z,12.63
2023-05-14T21:47:48.040Z,12.60
2023-05-14T21:50:15.866Z,12.70
2023-05-14T21:52:43.596Z,12.97
2023-05-14T21:55:11.355Z,12.54
2023-05-14T21:57:39.234Z,12.54
2023-05-14T22:00:13.282Z,12.34
2023-05-14T22:02:42.924Z,12.31
2023-05-14T22:05:10.927Z,13.14
2023-05-14T22:07:38.703Z,13.21
2023-05-14T22:10:07.372Z,13.40
2023-05-14T22:12:35.146Z,13.27
2023-05-14T22:15:03.214Z,12.35
2023-05-14T22:17:34.422Z,11.90
2023-05-14T22:20:02.408Z,11.65
2023-05-14T22:22:30.249Z,11.84
2023-05-14T22:24:58.005Z,12.12
2023-05-14T22:27:25.823Z,12.34
2023-05-14T22:29:55.095Z,12.72
2023-05-14T22:32:23.177Z,12.76
2023-05-14T22:34:52.360Z,12.51
2023-05-14T22:37:20.116Z,12.57
2023-05-14T22:39:47.883Z,12.21
2023-05-14T22:42:15.708Z,12.23
2023-05-14T22:44:43.426Z,12.07
2023-05-14T22:47:11.676Z,12.30
2023-05-14T22:49:40.107Z,13.22
2023-05-14T22:52:09.682Z,14.02
2023-05-14T22:54:37.470Z,14.16
2023-05-14T22:57:05.775Z,14.61
2023-05-14T22:59:33.842Z,13.96
2023-05-14T23:02:01.626Z,13.75
2023-05-14T23:04:29.417Z,13.88
2023-05-14T23:06:57.256Z,13.17
2023-05-14T23:09:26.281Z,12.49
2023-05-14T23:11:54.093Z,12.05
2023-05-14T23:14:22.637Z,12.29
2023-05-14T23:16:50.515Z,12.52
2023-05-14T23:19:18.458Z,12.33
2023-05-14T23:21:46.280Z,13.16
2023-05-14T23:24:14.031Z,12.50
2023-05-14T23:26:43.153Z,12.21
2023-05-14T23:29:10.944Z,12.22
2023-05-14T23:31:44.350Z,12.32
2023-05-14T23:34:12.146Z,12.19
2023-05-14T23:36:43.020Z,12.01
2023-05-14T23:39:10.791Z,12.08
2023-05-14T23:41:38.503Z,11.72
2023-05-14T23:44:07.901Z,11.51
2023-05-14T23:46:35.762Z,11.63
2023-05-14T23:49:04.873Z,11.80
2023-05-14T23:51:32.661Z,11.70
2023-05-14T23:54:00.410Z,11.69
2023-05-14T23:56:29.048Z,11.43
2023-05-14T23:58:57.218Z,11.30
